sensor_id;sensor_type;location;lat;lon;timestamp;pressure;altitude;pressure_sealevel;temperature;humidity
13934;BME280;7039;52.168;9.866;2022-08-11T00:00:57;101406.09;;;17.90;67.86
13934;BME280;7039;52.168;9.866;2022-08-11T00:03:24;101402.53;;;17.77;68.09
13934;BME280;7039;52.168;9.866;2022-08-11T00:05:53;101406.09;;;17.90;67.49
13934;BME280;7039;52.168;9.866;2022-08-11T00:08:23;101405.44;;;17.87;68.18
13934;BME280;7039;52.168;9.866;2022-08-11T00:10:52;101391.06;;;17.78;68.69
13934;BME280;7039;52.168;9.866;2022-08-11T00:13:21;101396.91;;;17.69;68.49
13934;BME280;7039;52.168;9.866;2022-08-11T00:15:56;101393.84;;;17.89;67.71
13934;BME280;7039;52.168;9.866;2022-08-11T00:18:24;101392.81;;;17.92;67.57
13934;BME280;7039;52.168;9.866;2022-08-11T00:20:57;101393.34;;;18.10;66.98
13934;BME280;7039;52.168;9.866;2022-08-11T00:23:26;101387.22;;;18.09;66.85
13934;BME280;7039;52.168;9.866;2022-08-11T00:25:53;101381.81;;;17.98;66.32
13934;BME280;7039;52.168;9.866;2022-08-11T00:28:25;101389.66;;;18.00;66.58
13934;BME280;7039;52.168;9.866;2022-08-11T00:30:53;101385.66;;;17.80;66.40
13934;BME280;7039;52.168;9.866;2022-08-11T00:33:22;101383.53;;;17.72;67.08
13934;BME280;7039;52.168;9.866;2022-08-11T00:35:50;101388.06;;;17.70;66.72
13934;BME280;7039;52.168;9.866;2022-08-11T00:38:24;101384.66;;;17.68;66.65
13934;BME280;7039;52.168;9.866;2022-08-11T00:40:58;101390.56;;;17.86;66.39
13934;BME280;7039;52.168;9.866;2022-08-11T00:43:38;101394.41;;;17.80;67.03
13934;BME280;7039;52.168;9.866;2022-08-11T00:46:12;101375.22;;;17.51;67.95
13934;BME280;7039;52.168;9.866;2022-08-11T00:48:49;101385.06;;;17.35;68.44
13934;BME280;7039;52.168;9.866;2022-08-11T00:51:37;101376.56;;;17.02;69.96
13934;BME280;7039;52.168;9.866;2022-08-11T00:54:24;101378.63;;;16.97;69.93
13934;BME280;7039;52.168;9.866;2022-08-11T00:57:24;101378.25;;;16.89;70.29
13934;BME280;7039;52.168;9.866;2022-08-11T01:00:10;101382.88;;;16.85;70.37
13934;BME280;7039;52.168;9.866;2022-08-11T01:02:50;101387.41;;;16.83;70.96
13934;BME280;7039;52.168;9.866;2022-08-11T01:05:37;101383.94;;;16.83;71.01
13934;BME280;7039;52.168;9.866;2022-08-11T01:08:20;101381.63;;;16.62;71.63
13934;BME280;7039;52.168;9.866;2022-08-11T01:11:11;101385.47;;;16.57;71.94
13934;BME280;7039;52.168;9.866;2022-08-11T01:17:12;101381.31;;;16.38;72.38
13934;BME280;7039;52.168;9.866;2022-08-11T01:20:10;101391.78;;;16.54;71.38
13934;BME280;7039;52.168;9.866;2022-08-11T01:29:16;101395.75;;;16.17;72.21
13934;BME280;7039;52.168;9.866;2022-08-11T01:35:06;101409.06;;;16.44;71.12
13934;BME280;7039;52.168;9.866;2022-08-11T01:44:03;101401.13;;;16.15;72.27
13934;BME280;7039;52.168;9.866;2022-08-11T01:46:55;101402.91;;;16.15;72.47
13934;BME280;7039;52.168;9.866;2022-08-11T01:49:26;101408.69;;;16.36;71.90
13934;BME280;7039;52.168;9.866;2022-08-11T01:52:08;101410.19;;;16.40;71.63
13934;BME280;7039;52.168;9.866;2022-08-11T01:54:42;101411.13;;;16.39;71.48
13934;BME280;7039;52.168;9.866;2022-08-11T01:57:25;101412.56;;;16.44;71.11
13934;BME280;7039;52.168;9.866;2022-08-11T02:00:05;101411.47;;;16.33;71.49
13934;BME280;7039;52.168;9.866;2022-08-11T02:02:38;101401.47;;;16.09;72.76
13934;BME280;7039;52.168;9.866;2022-08-11T02:05:43;101402.19;;;15.97;73.69
13934;BME280;7039;52.168;9.866;2022-08-11T02:08:22;101402.75;;;15.72;74.43
13934;BME280;7039;52.168;9.866;2022-08-11T02:10:57;101407.88;;;15.89;73.52
13934;BME280;7039;52.168;9.866;2022-08-11T02:13:46;101408.91;;;15.86;73.94
13934;BME280;7039;52.168;9.866;2022-08-11T02:16:20;101398.38;;;15.86;73.70
13934;BME280;7039;52.168;9.866;2022-08-11T02:18:51;101397.38;;;15.73;74.56
13934;BME280;7039;52.168;9.866;2022-08-11T02:21:45;101412.47;;;15.85;73.57
13934;BME280;7039;52.168;9.866;2022-08-11T02:24:45;101407.38;;;15.66;74.49
13934;BME280;7039;52.168;9.866;2022-08-11T02:27:19;101406.22;;;15.72;73.87
13934;BME280;7039;52.168;9.866;2022-08-11T02:29:56;101403.13;;;15.64;74.84
13934;BME280;7039;52.168;9.866;2022-08-11T02:32:34;101407.38;;;15.66;74.30
13934;BME280;7039;52.168;9.866;2022-08-11T02:35:24;101407.06;;;15.73;73.82
13934;BME280;7039;52.168;9.866;2022-08-11T02:38:11;101402.03;;;15.68;74.24
13934;BME280;7039;52.168;9.866;2022-08-11T02:40:47;101409.09;;;15.83;73.73
13934;BME280;7039;52.168;9.866;2022-08-11T02:43:25;101409.34;;;15.79;73.91
13934;BME280;7039;52.168;9.866;2022-08-11T02:46:04;101399.84;;;15.76;73.83
13934;BME280;7039;52.168;9.866;2022-08-11T02:48:46;101399.47;;;15.82;73.02
13934;BME280;7039;52.168;9.866;2022-08-11T02:51:39;101406.53;;;15.82;73.13
13934;BME280;7039;52.168;9.866;2022-08-11T02:54:13;101405.09;;;15.92;72.69
13934;BME280;7039;52.168;9.866;2022-08-11T02:56:50;101410.44;;;15.91;72.75
13934;BME280;7039;52.168;9.866;2022-08-11T02:59:32;101407.28;;;15.68;74.12
13934;BME280;7039;52.168;9.866;2022-08-11T03:02:30;101401.34;;;15.49;75.04
13934;BME280;7039;52.168;9.866;2022-08-11T03:05:06;101395.25;;;15.32;74.99
13934;BME280;7039;52.168;9.866;2022-08-11T03:07:44;101393.06;;;15.24;75.77
13934;BME280;7039;52.168;9.866;2022-08-11T03:10:21;101398.91;;;15.14;76.13
13934;BME280;7039;52.168;9.866;2022-08-11T03:12:52;101398.44;;;15.06;76.51
13934;BME280;7039;52.168;9.866;2022-08-11T03:15:45;101404.16;;;15.30;75.67
13934;BME280;7039;52.168;9.866;2022-08-11T03:18:36;101407.31;;;15.36;75.25
13934;BME280;7039;52.168;9.866;2022-08-11T03:21:16;101406.78;;;15.45;74.58
13934;BME280;7039;52.168;9.866;2022-08-11T03:23:54;101403.25;;;15.31;75.04
13934;BME280;7039;52.168;9.866;2022-08-11T03:26:23;101399.84;;;15.13;75.83
13934;BME280;7039;52.168;9.866;2022-08-11T03:29:03;101409.22;;;15.17;75.61
13934;BME280;7039;52.168;9.866;2022-08-11T03:31:34;101405.16;;;14.95;76.85
13934;BME280;7039;52.168;9.866;2022-08-11T03:34:03;101401.13;;;14.72;77.74
13934;BME280;7039;52.168;9.866;2022-08-11T03:37:18;101411.16;;;14.64;77.97
13934;BME280;7039;52.168;9.866;2022-08-11T03:43:23;101409.94;;;14.87;76.56
13934;BME280;7039;52.168;9.866;2022-08-11T03:46:01;101413.75;;;14.81;77.06
13934;BME280;7039;52.168;9.866;2022-08-11T03:48:39;101416.84;;;14.90;76.41
13934;BME280;7039;52.168;9.866;2022-08-11T03:51:21;101423.75;;;15.08;75.90
13934;BME280;7039;52.168;9.866;2022-08-11T03:54:06;101420.16;;;15.09;75.11
13934;BME280;7039;52.168;9.866;2022-08-11T03:57:20;101415.94;;;15.07;75.71
13934;BME280;7039;52.168;9.866;2022-08-11T04:00:14;101417.59;;;14.92;76.23
13934;BME280;7039;52.168;9.866;2022-08-11T04:03:06;101421.88;;;15.10;75.53
13934;BME280;7039;52.168;9.866;2022-08-11T04:09:17;101418.91;;;15.16;75.06
13934;BME280;7039;52.168;9.866;2022-08-11T04:15:36;101414.66;;;15.14;75.31
13934;BME280;7039;52.168;9.866;2022-08-11T06:41:05;101415.56;;;18.20;71.05
13934;BME280;7039;52.168;9.866;2022-08-11T06:49:02;101418.66;;;18.52;69.31
13934;BME280;7039;52.168;9.866;2022-08-11T06:51:30;101411.81;;;18.63;68.48
13934;BME280;7039;52.168;9.866;2022-08-11T06:53:59;101419.94;;;18.72;68.74
13934;BME280;7039;52.168;9.866;2022-08-11T06:56:29;101414.56;;;18.87;67.24
13934;BME280;7039;52.168;9.866;2022-08-11T06:59:15;101411.91;;;18.99;67.19
13934;BME280;7039;52.168;9.866;2022-08-11T07:02:05;101408.38;;;19.12;66.74
13934;BME280;7039;52.168;9.866;2022-08-11T07:04:39;101414.28;;;19.28;67.26
13934;BME280;7039;52.168;9.866;2022-08-11T07:10:42;101413.84;;;19.58;66.86
13934;BME280;7039;52.168;9.866;2022-08-11T07:13:34;101411.81;;;19.75;67.08
13934;BME280;7039;52.168;9.866;2022-08-11T07:16:25;101416.91;;;19.89;66.71
13934;BME280;7039;52.168;9.866;2022-08-11T07:18:54;101407.09;;;20.02;66.68
13934;BME280;7039;52.168;9.866;2022-08-11T07:21:45;101407.13;;;20.14;64.47
13934;BME280;7039;52.168;9.866;2022-08-11T07:24:34;101410.06;;;20.22;64.51
13934;BME280;7039;52.168;9.866;2022-08-11T07:27:20;101410.81;;;20.35;64.39
13934;BME280;7039;52.168;9.866;2022-08-11T07:30:09;101413.66;;;20.56;64.38
13934;BME280;7039;52.168;9.866;2022-08-11T07:32:49;101409.34;;;20.67;64.10
13934;BME280;7039;52.168;9.866;2022-08-11T07:35:20;101414.03;;;20.85;63.25
13934;BME280;7039;52.168;9.866;2022-08-11T07:37:54;101410.53;;;20.96;62.14
13934;BME280;7039;52.168;9.866;2022-08-11T07:40:23;101411.97;;;21.00;61.26
13934;BME280;7039;52.168;9.866;2022-08-11T07:42:51;101404.72;;;21.14;60.99
13934;BME280;7039;52.168;9.866;2022-08-11T07:45:22;101401.34;;;21.23;61.18
13934;BME280;7039;52.168;9.866;2022-08-11T07:48:07;101400.59;;;21.32;60.21
13934;BME280;7039;52.168;9.866;2022-08-11T07:50:52;101406.88;;;21.42;60.01
13934;BME280;7039;52.168;9.866;2022-08-11T07:53:37;101416.72;;;21.63;59.32
13934;BME280;7039;52.168;9.866;2022-08-11T07:56:05;101402.75;;;21.82;58.55
13934;BME280;7039;52.168;9.866;2022-08-11T07:58:34;101414.91;;;21.96;58.39
13934;BME280;7039;52.168;9.866;2022-08-11T08:01:22;101407.53;;;21.99;59.42
13934;BME280;7039;52.168;9.866;2022-08-11T08:04:08;101403.09;;;22.09;57.35
13934;BME280;7039;52.168;9.866;2022-08-11T08:06:52;101397.13;;;22.28;57.18
13934;BME280;7039;52.168;9.866;2022-08-11T08:09:38;101405.75;;;22.42;57.32
13934;BME280;7039;52.168;9.866;2022-08-11T08:12:24;101412.16;;;22.60;57.47
13934;BME280;7039;52.168;9.866;2022-08-11T08:15:12;101409.25;;;22.73;56.59
13934;BME280;7039;52.168;9.866;2022-08-11T08:18:00;101410.16;;;22.83;56.37
13934;BME280;7039;52.168;9.866;2022-08-11T08:20:29;101404.59;;;22.96;55.27
13934;BME280;7039;52.168;9.866;2022-08-11T08:22:59;101410.72;;;23.18;55.19
13934;BME280;7039;52.168;9.866;2022-08-11T08:25:29;101401.31;;;23.13;54.46
13934;BME280;7039;52.168;9.866;2022-08-11T08:27:58;101408.34;;;23.24;53.41
13934;BME280;7039;52.168;9.866;2022-08-11T08:30:27;101410.47;;;23.30;54.57
13934;BME280;7039;52.168;9.866;2022-08-11T08:33:14;101411.47;;;23.39;53.21
13934;BME280;7039;52.168;9.866;2022-08-11T08:35:43;101406.00;;;23.41;52.51
13934;BME280;7039;52.168;9.866;2022-08-11T08:38:12;101400.84;;;23.49;52.75
13934;BME280;7039;52.168;9.866;2022-08-11T08:40:42;101396.38;;;23.69;53.82
13934;BME280;7039;52.168;9.866;2022-08-11T08:43:12;101398.91;;;23.90;54.10
13934;BME280;7039;52.168;9.866;2022-08-11T08:45:42;101398.59;;;24.03;52.35
13934;BME280;7039;52.168;9.866;2022-08-11T08:48:12;101400.56;;;24.20;51.84
13934;BME280;7039;52.168;9.866;2022-08-11T08:50:43;101395.91;;;24.32;50.69
13934;BME280;7039;52.168;9.866;2022-08-11T08:53:33;101389.69;;;24.41;50.45
13934;BME280;7039;52.168;9.866;2022-08-11T08:56:00;101399.13;;;24.55;51.80
13934;BME280;7039;52.168;9.866;2022-08-11T08:58:28;101394.88;;;24.62;51.03
13934;BME280;7039;52.168;9.866;2022-08-11T09:00:57;101388.75;;;24.79;51.73
13934;BME280;7039;52.168;9.866;2022-08-11T09:03:25;101387.91;;;24.79;51.65
13934;BME280;7039;52.168;9.866;2022-08-11T09:05:54;101393.63;;;24.94;49.85
13934;BME280;7039;52.168;9.866;2022-08-11T09:08:23;101388.69;;;24.99;49.45
13934;BME280;7039;52.168;9.866;2022-08-11T09:10:51;101379.00;;;25.16;48.99
13934;BME280;7039;52.168;9.866;2022-08-11T09:13:32;101380.31;;;25.12;48.74
13934;BME280;7039;52.168;9.866;2022-08-11T09:15:59;101382.97;;;25.21;50.73
13934;BME280;7039;52.168;9.866;2022-08-11T09:18:26;101382.75;;;25.33;48.21
13934;BME280;7039;52.168;9.866;2022-08-11T09:20:55;101381.16;;;25.40;47.97
13934;BME280;7039;52.168;9.866;2022-08-11T09:23:22;101376.09;;;25.55;48.10
13934;BME280;7039;52.168;9.866;2022-08-11T09:26:04;101368.75;;;25.75;46.73
13934;BME280;7039;52.168;9.866;2022-08-11T09:28:49;101374.59;;;25.88;46.52
13934;BME280;7039;52.168;9.866;2022-08-11T09:31:18;101368.84;;;26.01;47.62
13934;BME280;7039;52.168;9.866;2022-08-11T09:33:47;101372.97;;;25.95;46.53
13934;BME280;7039;52.168;9.866;2022-08-11T09:36:18;101368.16;;;25.99;47.02
13934;BME280;7039;52.168;9.866;2022-08-11T09:39:04;101366.66;;;25.96;46.71
13934;BME280;7039;52.168;9.866;2022-08-11T09:41:49;101356.53;;;26.08;47.47
13934;BME280;7039;52.168;9.866;2022-08-11T09:44:16;101369.16;;;26.24;48.06
13934;BME280;7039;52.168;9.866;2022-08-11T09:47:01;101362.47;;;26.46;46.15
13934;BME280;7039;52.168;9.866;2022-08-11T09:49:30;101356.84;;;26.57;45.40
13934;BME280;7039;52.168;9.866;2022-08-11T09:51:59;101353.69;;;26.62;45.95
13934;BME280;7039;52.168;9.866;2022-08-11T09:54:26;101359.94;;;26.79;44.44
13934;BME280;7039;52.168;9.866;2022-08-11T09:56:53;101355.81;;;26.84;44.35
13934;BME280;7039;52.168;9.866;2022-08-11T09:59:38;101344.66;;;27.05;44.65
13934;BME280;7039;52.168;9.866;2022-08-11T10:02:06;101348.69;;;27.10;44.40
13934;BME280;7039;52.168;9.866;2022-08-11T10:04:39;101334.81;;;27.22;44.00
13934;BME280;7039;52.168;9.866;2022-08-11T10:07:08;101334.00;;;27.22;42.77
13934;BME280;7039;52.168;9.866;2022-08-11T10:09:37;101328.28;;;27.25;43.16
13934;BME280;7039;52.168;9.866;2022-08-11T10:12:08;101331.16;;;27.32;41.44
13934;BME280;7039;52.168;9.866;2022-08-11T10:14:41;101322.28;;;27.47;42.41
13934;BME280;7039;52.168;9.866;2022-08-11T10:17:29;101331.53;;;27.53;41.66
13934;BME280;7039;52.168;9.866;2022-08-11T10:19:57;101322.31;;;27.56;41.60
13934;BME280;7039;52.168;9.866;2022-08-11T10:22:29;101311.25;;;27.67;40.88
13934;BME280;7039;52.168;9.866;2022-08-11T10:25:14;101295.50;;;27.64;41.07
13934;BME280;7039;52.168;9.866;2022-08-11T10:27:59;101302.19;;;27.76;40.19
13934;BME280;7039;52.168;9.866;2022-08-11T10:30:28;101303.53;;;27.88;41.60
13934;BME280;7039;52.168;9.866;2022-08-11T10:33:12;101296.16;;;27.90;39.57
13934;BME280;7039;52.168;9.866;2022-08-11T10:35:57;101292.28;;;28.09;41.46
13934;BME280;7039;52.168;9.866;2022-08-11T10:38:26;101295.38;;;28.29;42.78
13934;BME280;7039;52.168;9.866;2022-08-11T10:40:54;101295.00;;;28.41;41.79
13934;BME280;7039;52.168;9.866;2022-08-11T10:43:37;101295.56;;;28.76;39.71
13934;BME280;7039;52.168;9.866;2022-08-11T10:46:06;101286.34;;;28.70;37.42
13934;BME280;7039;52.168;9.866;2022-08-11T10:48:52;101287.16;;;28.79;39.45
13934;BME280;7039;52.168;9.866;2022-08-11T10:51:20;101291.19;;;28.74;38.38
13934;BME280;7039;52.168;9.866;2022-08-11T10:54:02;101298.22;;;29.07;39.18
13934;BME280;7039;52.168;9.866;2022-08-11T10:56:48;101289.75;;;29.18;39.27
13934;BME280;7039;52.168;9.866;2022-08-11T10:59:32;101291.09;;;29.22;36.92
13934;BME280;7039;52.168;9.866;2022-08-11T11:02:00;101282.94;;;29.07;38.52
13934;BME280;7039;52.168;9.866;2022-08-11T11:04:32;101289.69;;;29.49;40.66
13934;BME280;7039;52.168;9.866;2022-08-11T11:07:03;101281.72;;;29.79;38.25
13934;BME280;7039;52.168;9.866;2022-08-11T11:09:36;101276.91;;;29.89;37.59
13934;BME280;7039;52.168;9.866;2022-08-11T11:12:09;101281.91;;;29.92;38.31
13934;BME280;7039;52.168;9.866;2022-08-11T11:14:54;101280.59;;;29.73;36.33
13934;BME280;7039;52.168;9.866;2022-08-11T11:17:42;101281.47;;;29.89;38.19
13934;BME280;7039;52.168;9.866;2022-08-11T11:20:27;101282.00;;;29.99;37.22
13934;BME280;7039;52.168;9.866;2022-08-11T11:22:56;101275.91;;;30.05;35.00
13934;BME280;7039;52.168;9.866;2022-08-11T11:25:37;101270.06;;;30.16;35.69
13934;BME280;7039;52.168;9.866;2022-08-11T11:31:27;101265.97;;;30.50;36.83
13934;BME280;7039;52.168;9.866;2022-08-11T11:34:14;101262.41;;;30.65;36.89
13934;BME280;7039;52.168;9.866;2022-08-11T11:36:46;101260.00;;;30.55;37.06
13934;BME280;7039;52.168;9.866;2022-08-11T11:39:16;101256.63;;;30.68;36.50
13934;BME280;7039;52.168;9.866;2022-08-11T11:41:47;101268.69;;;30.87;36.54
13934;BME280;7039;52.168;9.866;2022-08-11T11:44:14;101253.34;;;30.87;35.60
13934;BME280;7039;52.168;9.866;2022-08-11T11:46:43;101252.22;;;31.25;37.17
13934;BME280;7039;52.168;9.866;2022-08-11T11:49:12;101254.25;;;30.94;33.57
13934;BME280;7039;52.168;9.866;2022-08-11T11:51:40;101256.56;;;31.19;35.59
13934;BME280;7039;52.168;9.866;2022-08-11T11:54:07;101250.22;;;31.05;34.44
13934;BME280;7039;52.168;9.866;2022-08-11T11:56:36;101246.78;;;31.18;32.62
13934;BME280;7039;52.168;9.866;2022-08-11T11:59:05;101253.16;;;31.38;34.02
13934;BME280;7039;52.168;9.866;2022-08-11T12:01:50;101242.06;;;30.98;32.46
13934;BME280;7039;52.168;9.866;2022-08-11T12:04:19;101242.75;;;30.86;34.31
13934;BME280;7039;52.168;9.866;2022-08-11T12:06:46;101241.84;;;31.21;36.16
13934;BME280;7039;52.168;9.866;2022-08-11T12:09:13;101245.88;;;31.54;32.99
13934;BME280;7039;52.168;9.866;2022-08-11T12:11:48;101232.88;;;31.64;34.20
13934;BME280;7039;52.168;9.866;2022-08-11T12:14:35;101234.13;;;31.96;34.87
13934;BME280;7039;52.168;9.866;2022-08-11T12:17:02;101234.47;;;32.21;34.32
13934;BME280;7039;52.168;9.866;2022-08-11T12:19:29;101224.09;;;32.32;31.61
13934;BME280;7039;52.168;9.866;2022-08-11T12:21:56;101224.16;;;32.45;32.25
13934;BME280;7039;52.168;9.866;2022-08-11T12:24:42;101229.69;;;32.85;33.36
13934;BME280;7039;52.168;9.866;2022-08-11T12:27:26;101215.56;;;32.90;34.55
13934;BME280;7039;52.168;9.866;2022-08-11T12:30:00;101215.97;;;33.00;34.01
13934;BME280;7039;52.168;9.866;2022-08-11T12:32:31;101213.53;;;33.18;34.32
13934;BME280;7039;52.168;9.866;2022-08-11T12:35:00;101208.22;;;32.63;30.03
13934;BME280;7039;52.168;9.866;2022-08-11T12:37:30;101206.34;;;32.02;31.09
13934;BME280;7039;52.168;9.866;2022-08-11T12:40:01;101196.59;;;32.56;33.73
13934;BME280;7039;52.168;9.866;2022-08-11T12:42:46;101200.78;;;32.72;33.17
13934;BME280;7039;52.168;9.866;2022-08-11T12:45:33;101194.38;;;33.20;31.71
13934;BME280;7039;52.168;9.866;2022-08-11T12:48:06;101190.41;;;33.42;31.59
13934;BME280;7039;52.168;9.866;2022-08-11T12:50:55;101190.19;;;33.64;31.75
13934;BME280;7039;52.168;9.866;2022-08-11T12:53:45;101185.78;;;33.76;32.15
13934;BME280;7039;52.168;9.866;2022-08-11T12:56:16;101186.34;;;33.98;32.13
13934;BME280;7039;52.168;9.866;2022-08-11T12:59:10;101172.13;;;34.16;32.35
13934;BME280;7039;52.168;9.866;2022-08-11T13:01:56;101178.31;;;34.68;32.24
13934;BME280;7039;52.168;9.866;2022-08-11T13:04:41;101167.16;;;34.77;27.50
13934;BME280;7039;52.168;9.866;2022-08-11T13:07:24;101171.94;;;35.06;29.56
13934;BME280;7039;52.168;9.866;2022-08-11T13:09:51;101165.47;;;35.51;32.49
13934;BME280;7039;52.168;9.866;2022-08-11T13:12:20;101154.28;;;35.84;31.20
13934;BME280;7039;52.168;9.866;2022-08-11T13:15:06;101163.22;;;36.03;30.34
13934;BME280;7039;52.168;9.866;2022-08-11T13:17:38;101162.44;;;36.45;29.73
13934;BME280;7039;52.168;9.866;2022-08-11T13:20:08;101162.41;;;36.33;28.19
13934;BME280;7039;52.168;9.866;2022-08-11T13:22:37;101161.13;;;35.87;27.46
13934;BME280;7039;52.168;9.866;2022-08-11T13:25:05;101147.66;;;36.10;27.69
13934;BME280;7039;52.168;9.866;2022-08-11T13:27:33;101148.84;;;36.45;29.24
13934;BME280;7039;52.168;9.866;2022-08-11T13:30:01;101146.47;;;36.90;28.19
13934;BME280;7039;52.168;9.866;2022-08-11T13:32:44;101147.91;;;37.64;28.17
13934;BME280;7039;52.168;9.866;2022-08-11T13:35:12;101139.16;;;37.61;26.11
13934;BME280;7039;52.168;9.866;2022-08-11T13:37:42;101145.38;;;38.14;27.66
13934;BME280;7039;52.168;9.866;2022-08-11T13:40:11;101143.31;;;38.67;28.14
13934;BME280;7039;52.168;9.866;2022-08-11T13:42:38;101145.00;;;39.24;27.37
13934;BME280;7039;52.168;9.866;2022-08-11T13:45:07;101147.81;;;40.17;26.47
13934;BME280;7039;52.168;9.866;2022-08-11T13:47:36;101153.75;;;41.01;25.02
13934;BME280;7039;52.168;9.866;2022-08-11T13:50:06;101135.88;;;41.30;24.44
13934;BME280;7039;52.168;9.866;2022-08-11T13:52:34;101145.44;;;41.28;23.95
13934;BME280;7039;52.168;9.866;2022-08-11T13:55:04;101157.31;;;41.49;25.53
13934;BME280;7039;52.168;9.866;2022-08-11T13:57:32;101141.66;;;42.02;26.36
13934;BME280;7039;52.168;9.866;2022-08-11T14:00:01;101140.34;;;42.66;24.07
13934;BME280;7039;52.168;9.866;2022-08-11T14:02:37;101135.94;;;42.55;23.20
13934;BME280;7039;52.168;9.866;2022-08-11T14:05:11;101133.72;;;42.26;23.47
13934;BME280;7039;52.168;9.866;2022-08-11T14:07:42;101132.63;;;42.73;24.03
13934;BME280;7039;52.168;9.866;2022-08-11T14:10:15;101132.94;;;42.57;24.75
13934;BME280;7039;52.168;9.866;2022-08-11T14:12:47;101129.56;;;41.93;23.58
13934;BME280;7039;52.168;9.866;2022-08-11T14:15:34;101121.91;;;42.10;22.76
13934;BME280;7039;52.168;9.866;2022-08-11T14:18:05;101117.19;;;41.75;25.16
13934;BME280;7039;52.168;9.866;2022-08-11T14:20:36;101122.50;;;42.84;23.96
13934;BME280;7039;52.168;9.866;2022-08-11T14:23:26;101120.72;;;41.70;22.29
13934;BME280;7039;52.168;9.866;2022-08-11T14:25:54;101105.69;;;40.13;23.56
13934;BME280;7039;52.168;9.866;2022-08-11T14:28:39;101100.91;;;38.26;24.01
13934;BME280;7039;52.168;9.866;2022-08-11T14:31:06;101101.09;;;37.78;26.21
13934;BME280;7039;52.168;9.866;2022-08-11T14:33:34;101102.34;;;38.96;25.96
13934;BME280;7039;52.168;9.866;2022-08-11T14:36:04;101107.72;;;39.74;25.52
13934;BME280;7039;52.168;9.866;2022-08-11T14:38:32;101107.91;;;40.43;25.01
13934;BME280;7039;52.168;9.866;2022-08-11T14:40:59;101105.81;;;41.46;25.25
13934;BME280;7039;52.168;9.866;2022-08-11T14:43:44;101112.06;;;42.25;25.22
13934;BME280;7039;52.168;9.866;2022-08-11T14:46:28;101105.09;;;41.76;24.65
13934;BME280;7039;52.168;9.866;2022-08-11T14:49:13;101097.25;;;42.36;22.71
13934;BME280;7039;52.168;9.866;2022-08-11T14:51:41;101105.78;;;42.45;23.13
13934;BME280;7039;52.168;9.866;2022-08-11T14:54:08;101096.97;;;42.17;22.40
13934;BME280;7039;52.168;9.866;2022-08-11T14:56:52;101100.84;;;42.52;23.32
13934;BME280;7039;52.168;9.866;2022-08-11T14:59:22;101100.28;;;42.34;23.04
13934;BME280;7039;52.168;9.866;2022-08-11T15:01:49;101091.97;;;41.73;22.23
13934;BME280;7039;52.168;9.866;2022-08-11T15:04:34;101085.66;;;41.78;23.90
13934;BME280;7039;52.168;9.866;2022-08-11T15:07:02;101092.03;;;42.19;23.66
13934;BME280;7039;52.168;9.866;2022-08-11T15:09:30;101088.47;;;42.70;23.02
13934;BME280;7039;52.168;9.866;2022-08-11T15:11:58;101091.47;;;42.79;23.00
13934;BME280;7039;52.168;9.866;2022-08-11T15:14:34;101087.69;;;43.94;22.73
13934;BME280;7039;52.168;9.866;2022-08-11T15:17:20;101087.94;;;43.53;22.53
13934;BME280;7039;52.168;9.866;2022-08-11T15:19:47;101074.19;;;43.64;22.19
13934;BME280;7039;52.168;9.866;2022-08-11T15:22:30;101073.47;;;41.38;22.64
13934;BME280;7039;52.168;9.866;2022-08-11T15:25:14;101076.63;;;41.09;23.37
13934;BME280;7039;52.168;9.866;2022-08-11T15:27:44;101077.47;;;41.15;24.80
13934;BME280;7039;52.168;9.866;2022-08-11T15:30:29;101071.03;;;41.41;25.25
13934;BME280;7039;52.168;9.866;2022-08-11T15:33:16;101073.13;;;42.23;24.19
13934;BME280;7039;52.168;9.866;2022-08-11T15:36:05;101067.09;;;42.36;23.21
13934;BME280;7039;52.168;9.866;2022-08-11T15:38:55;101057.13;;;42.96;24.62
13934;BME280;7039;52.168;9.866;2022-08-11T15:41:28;101063.44;;;43.02;24.08
13934;BME280;7039;52.168;9.866;2022-08-11T15:44:15;101059.91;;;42.76;24.08
13934;BME280;7039;52.168;9.866;2022-08-11T15:47:02;101058.56;;;42.68;22.64
13934;BME280;7039;52.168;9.866;2022-08-11T15:49:33;101061.88;;;42.04;22.93
13934;BME280;7039;52.168;9.866;2022-08-11T15:52:06;101059.91;;;41.73;23.42
13934;BME280;7039;52.168;9.866;2022-08-11T15:54:42;101058.53;;;41.66;23.53
13934;BME280;7039;52.168;9.866;2022-08-11T15:57:11;101056.69;;;42.02;22.82
13934;BME280;7039;52.168;9.866;2022-08-11T16:00:03;101049.25;;;42.28;21.43
13934;BME280;7039;52.168;9.866;2022-08-11T16:02:48;101044.59;;;42.34;23.33
13934;BME280;7039;52.168;9.866;2022-08-11T16:05:33;101047.28;;;42.85;22.38
13934;BME280;7039;52.168;9.866;2022-08-11T16:08:02;101042.84;;;43.05;23.26
13934;BME280;7039;52.168;9.866;2022-08-11T16:10:31;101036.13;;;42.46;23.59
13934;BME280;7039;52.168;9.866;2022-08-11T16:13:01;101033.25;;;42.92;23.69
13934;BME280;7039;52.168;9.866;2022-08-11T16:15:58;101033.03;;;42.83;23.16
13934;BME280;7039;52.168;9.866;2022-08-11T16:18:46;101034.94;;;41.65;23.50
13934;BME280;7039;52.168;9.866;2022-08-11T16:21:17;101035.53;;;41.77;23.24
13934;BME280;7039;52.168;9.866;2022-08-11T16:23:45;101033.09;;;42.42;23.91
13934;BME280;7039;52.168;9.866;2022-08-11T16:26:17;101028.41;;;42.63;23.53
13934;BME280;7039;52.168;9.866;2022-08-11T16:28:45;101026.69;;;42.88;23.12
13934;BME280;7039;52.168;9.866;2022-08-11T16:31:14;101027.19;;;43.05;23.98
13934;BME280;7039;52.168;9.866;2022-08-11T16:33:42;101020.75;;;43.30;23.96
13934;BME280;7039;52.168;9.866;2022-08-11T16:36:09;101016.56;;;42.83;22.60
13934;BME280;7039;52.168;9.866;2022-08-11T16:38:55;101019.31;;;42.88;23.76
13934;BME280;7039;52.168;9.866;2022-08-11T16:41:25;101025.41;;;42.29;23.49
13934;BME280;7039;52.168;9.866;2022-08-11T16:44:13;101019.69;;;42.20;23.63
13934;BME280;7039;52.168;9.866;2022-08-11T16:46:58;101021.00;;;41.61;24.17
13934;BME280;7039;52.168;9.866;2022-08-11T16:49:28;101020.34;;;41.34;23.90
13934;BME280;7039;52.168;9.866;2022-08-11T16:51:55;101017.59;;;41.28;24.53
13934;BME280;7039;52.168;9.866;2022-08-11T16:54:22;101019.81;;;41.47;24.22